Time;durP1;ratioP1;P1;durP2;ratioP2;P2;SDS_P1;SDS_P2;PMS_P1;PMS_P2;Temp;Humidity;BMP_temperature;BMP_pressure;BME280_temperature;BME280_humidity;BME280_pressure;Samples;Min_cycle;Max_cycle;Signal;HPM_P1;HPM_P2
2022/03/31 05:43:50;;;;;;;36.38;22.77;;;11.70;94.90;;;;;;5060135;28;20116;-76
2022/03/31 05:46:16;;;;;;;33.85;21.23;;;11.70;95.00;;;;;;5073671;28;20380;-76
2022/03/31 05:48:42;;;;;;;34.30;22.48;;;11.70;94.80;;;;;;5074692;28;20036;-79
2022/03/31 05:51:07;;;;;;;33.72;22.95;;;11.70;94.70;;;;;;5073456;28;20052;-76
2022/03/31 05:53:33;;;;;;;39.33;22.00;;;11.70;95.00;;;;;;5067627;28;20032;-76
2022/03/31 05:55:59;;;;;;;34.58;23.15;;;11.70;95.00;;;;;;5071389;28;20095;-76
2022/03/31 05:58:25;;;;;;;37.28;24.10;;;11.60;95.30;;;;;;5054593;28;20340;-76
2022/03/31 06:00:53;;;;;;;40.42;23.70;;;11.60;95.30;;;;;;5074507;28;20423;-76
2022/03/31 06:03:22;;;;;;;42.58;23.52;;;11.60;95.20;;;;;;5071353;28;20024;-80
2022/03/31 06:05:52;;;;;;;39.92;24.20;;;11.60;95.40;;;;;;5052115;28;20123;-82
2022/03/31 06:08:17;;;;;;;44.88;24.23;;;11.70;95.40;;;;;;5047988;28;20400;-78
2022/03/31 06:10:44;;;;;;;45.53;24.75;;;11.60;95.30;;;;;;5064501;28;20048;-78
2022/03/31 06:13:11;;;;;;;42.90;24.50;;;11.60;95.30;;;;;;5062421;28;20175;-77
2022/03/31 06:15:37;;;;;;;31.67;21.80;;;11.60;95.60;;;;;;5073790;28;20032;-81
2022/03/31 06:18:04;;;;;;;32.40;19.92;;;11.60;95.40;;;;;;5074571;28;20032;-78
2022/03/31 06:20:31;;;;;;;40.25;23.27;;;11.60;95.40;;;;;;5054199;28;20040;-80
2022/03/31 06:22:57;;;;;;;40.22;24.80;;;11.70;95.40;;;;;;5052507;28;20036;-78
2022/03/31 06:25:23;;;;;;;34.28;22.60;;;11.70;95.00;;;;;;5054466;28;20427;-79
2022/03/31 06:27:49;;;;;;;33.88;21.95;;;11.70;95.20;;;;;;5072913;28;20119;-78
2022/03/31 06:30:16;;;;;;;34.75;22.48;;;11.70;95.10;;;;;;5041861;28;20115;-79
2022/03/31 06:32:42;;;;;;;34.13;21.33;;;11.60;95.00;;;;;;5073077;28;20039;-78
2022/03/31 06:35:11;;;;;;;35.38;21.17;;;11.60;95.10;;;;;;5072494;28;20135;-78
2022/03/31 06:37:39;;;;;;;33.37;20.90;;;11.60;95.10;;;;;;5063720;28;20029;-81
2022/03/31 06:40:05;;;;;;;71.60;23.33;;;11.60;95.20;;;;;;5069041;28;20358;-80
2022/03/31 06:42:31;;;;;;;37.97;22.38;;;11.70;95.50;;;;;;5067457;28;20051;-80
2022/03/31 06:44:57;;;;;;;43.17;21.52;;;11.60;95.10;;;;;;5049586;28;20033;-80
2022/03/31 06:47:22;;;;;;;40.00;21.08;;;11.60;95.20;;;;;;5074028;28;20111;-81
2022/03/31 06:49:48;;;;;;;30.00;20.63;;;11.70;95.30;;;;;;5075180;28;20118;-81
2022/03/31 06:52:14;;;;;;;34.35;21.88;;;11.70;95.40;;;;;;5074842;28;20066;-82
2022/03/31 06:54:40;;;;;;;30.67;20.73;;;11.70;95.50;;;;;;5074670;28;20041;-77
2022/03/31 06:57:06;;;;;;;36.97;19.70;;;11.70;95.40;;;;;;5044551;28;20065;-76
2022/03/31 06:59:31;;;;;;;37.20;20.73;;;11.70;95.50;;;;;;5074346;28;20070;-76
2022/03/31 07:01:58;;;;;;;29.67;18.45;;;11.60;95.10;;;;;;5073877;28;20123;-75
2022/03/31 07:04:23;;;;;;;42.65;22.50;;;11.60;95.00;;;;;;5073418;28;20028;-75
2022/03/31 07:06:49;;;;;;;36.67;20.90;;;11.60;95.20;;;;;;5073666;28;20406;-76
2022/03/31 07:09:15;;;;;;;31.98;19.20;;;11.60;95.50;;;;;;5073382;28;20037;-77
2022/03/31 07:11:41;;;;;;;38.33;19.10;;;11.60;95.10;;;;;;5041151;28;20413;-77
2022/03/31 07:14:07;;;;;;;31.58;19.70;;;11.50;95.30;;;;;;5062396;28;20094;-76
2022/03/31 07:16:33;;;;;;;33.50;19.45;;;11.50;95.60;;;;;;5064434;28;20036;-78
2022/03/31 07:19:01;;;;;;;29.80;19.38;;;11.60;95.90;;;;;;5071687;28;20039;-77
2022/03/31 07:21:27;;;;;;;29.50;17.88;;;11.60;95.50;;;;;;5072619;28;20040;-77
2022/03/31 07:23:53;;;;;;;31.58;17.95;;;11.60;95.30;;;;;;5070706;28;20041;-77
2022/03/31 07:26:19;;;;;;;35.13;18.92;;;11.60;95.30;;;;;;5072776;28;20048;-78
2022/03/31 07:28:46;;;;;;;34.00;20.15;;;11.60;95.40;;;;;;5073071;28;20032;-78
2022/03/31 07:31:12;;;;;;;29.50;19.40;;;11.50;95.40;;;;;;5072363;28;20036;-77
2022/03/31 07:33:38;;;;;;;33.95;21.38;;;11.50;95.80;;;;;;5073307;28;20029;-78
2022/03/31 07:36:06;;;;;;;32.90;19.58;;;11.50;95.70;;;;;;5073002;28;21984;-78
2022/03/31 07:38:32;;;;;;;41.75;21.15;;;11.50;95.70;;;;;;5072327;28;20079;-77
2022/03/31 07:40:58;;;;;;;29.77;20.38;;;11.60;95.90;;;;;;5071055;28;20141;-77
2022/03/31 07:43:24;;;;;;;33.70;20.98;;;11.60;95.70;;;;;;5044636;28;20056;-76
2022/03/31 07:45:51;;;;;;;37.10;19.42;;;11.60;95.60;;;;;;5071608;28;20098;-77
2022/03/31 07:48:18;;;;;;;31.60;19.55;;;11.60;95.90;;;;;;5055922;28;20096;-77
2022/03/31 07:50:44;;;;;;;38.65;19.83;;;11.60;95.60;;;;;;5054757;28;20032;-77
2022/03/31 07:53:11;;;;;;;28.52;18.85;;;11.60;95.40;;;;;;5071030;28;20127;-78
2022/03/31 07:55:37;;;;;;;32.33;18.90;;;11.60;95.70;;;;;;5050085;28;20109;-79
2022/03/31 07:58:03;;;;;;;26.77;17.17;;;11.60;95.90;;;;;;5072335;28;20041;-80
2022/03/31 08:00:29;;;;;;;31.02;18.17;;;11.70;96.00;;;;;;5072933;28;20041;-79
2022/03/31 08:02:57;;;;;;;41.22;19.08;;;11.70;95.70;;;;;;5074162;28;20040;-82
2022/03/31 08:05:25;;;;;;;38.50;19.73;;;11.80;95.70;;;;;;5049341;28;20045;-80
2022/03/31 08:07:51;;;;;;;32.67;18.70;;;11.70;95.50;;;;;;5073128;28;20480;-80
2022/03/31 08:10:18;;;;;;;34.22;18.75;;;11.70;95.80;;;;;;5069133;28;20041;-80
2022/03/31 08:12:45;;;;;;;33.53;19.38;;;11.70;96.00;;;;;;5048415;28;20032;-80
2022/03/31 08:15:14;;;;;;;27.25;19.27;;;11.70;96.10;;;;;;5063639;28;20044;-79
2022/03/31 08:17:39;;;;;;;32.35;17.25;;;11.60;95.90;;;;;;5060671;28;20369;-79
2022/03/31 08:20:10;;;;;;;37.75;19.52;;;11.50;96.20;;;;;;5048438;28;20044;-79
2022/03/31 08:22:38;;;;;;;26.40;15.48;;;11.50;96.20;;;;;;5066585;28;20044;-79
2022/03/31 08:25:05;;;;;;;30.00;17.30;;;11.60;96.40;;;;;;5069866;28;20054;-78
2022/03/31 08:27:32;;;;;;;33.45;17.15;;;11.70;96.00;;;;;;5066479;28;20040;-79
2022/03/31 08:29:58;;;;;;;32.90;15.73;;;11.60;95.70;;;;;;5065153;28;20037;-79
2022/03/31 08:32:24;;;;;;;29.73;14.88;;;11.40;95.90;;;;;;5064384;28;20036;-79
2022/03/31 08:34:50;;;;;;;27.95;15.77;;;11.50;96.40;;;;;;5066658;28;20045;-75
2022/03/31 08:37:16;;;;;;;30.10;14.85;;;11.60;96.20;;;;;;5068796;28;20120;-75
2022/03/31 08:39:42;;;;;;;28.88;14.77;;;11.60;96.10;;;;;;5050383;28;20044;-75
2022/03/31 08:42:08;;;;;;;28.83;14.32;;;11.60;95.70;;;;;;5051263;28;20048;-79
2022/03/31 08:44:35;;;;;;;28.20;10.93;;;11.60;95.60;;;;;;5055090;28;20565;-79
2022/03/31 08:47:01;;;;;;;25.50;12.88;;;11.60;95.70;;;;;;5069405;28;20028;-78
2022/03/31 08:49:31;;;;;;;24.50;12.93;;;11.70;95.60;;;;;;5068489;28;20044;-78
2022/03/31 08:51:57;;;;;;;26.67;11.30;;;11.80;95.60;;;;;;5066346;28;20044;-79
2022/03/31 08:54:22;;;;;;;25.05;10.65;;;11.80;95.10;;;;;;5063695;28;20048;-79
2022/03/31 08:56:48;;;;;;;18.02;9.55;;;11.90;95.40;;;;;;5069718;28;20070;-79
2022/03/31 08:59:14;;;;;;;28.42;10.75;;;12.10;95.30;;;;;;5072012;28;20103;-79
2022/03/31 09:01:40;;;;;;;17.83;8.88;;;12.20;94.20;;;;;;5072988;28;20024;-78
2022/03/31 09:04:24;;;;;;;19.35;9.05;;;12.30;94.70;;;;;;5054407;28;20044;-74
2022/03/31 09:07:08;;;;;;;16.52;9.15;;;12.40;94.70;;;;;;5072087;28;20043;-75
2022/03/31 09:09:47;;;;;;;20.40;8.75;;;12.50;94.00;;;;;;5072688;28;20065;-74
2022/03/31 09:12:13;;;;;;;24.10;9.43;;;12.50;93.50;;;;;;5072280;28;20040;-74
2022/03/31 09:14:39;;;;;;;18.13;8.23;;;12.60;93.40;;;;;;5072464;28;20491;-74
2022/03/31 09:17:15;;;;;;;19.63;10.25;;;12.60;93.60;;;;;;5057988;28;20447;-75
2022/03/31 09:19:42;;;;;;;22.60;8.63;;;12.70;93.20;;;;;;5075108;28;20066;-75
2022/03/31 09:22:09;;;;;;;19.58;8.45;;;12.60;92.70;;;;;;5071010;28;20408;-75
2022/03/31 09:24:34;;;;;;;17.95;8.45;;;12.70;92.80;;;;;;5076121;28;20041;-75
2022/03/31 09:27:03;;;;;;;21.90;9.20;;;12.70;93.40;;;;;;5069765;28;20043;-75
2022/03/31 09:29:32;;;;;;;15.88;8.68;;;12.60;92.70;;;;;;5072507;28;20041;-75
2022/03/31 09:32:09;;;;;;;17.10;9.02;;;12.70;93.50;;;;;;5074646;28;20040;-78
2022/03/31 09:34:48;;;;;;;21.25;9.02;;;12.70;92.80;;;;;;5049422;28;20047;-78
2022/03/31 09:37:15;;;;;;;18.17;9.00;;;12.70;93.10;;;;;;5062547;28;20111;-78
2022/03/31 09:39:41;;;;;;;14.45;8.25;;;12.70;93.30;;;;;;5067754;28;20047;-76
2022/03/31 09:42:12;;;;;;;19.77;8.95;;;12.70;93.00;;;;;;5052912;28;20053;-74
2022/03/31 09:44:38;;;;;;;16.70;10.30;;;12.70;92.60;;;;;;5057319;28;20029;-74
2022/03/31 09:47:03;;;;;;;18.27;9.73;;;12.60;92.80;;;;;;5075083;28;20039;-75
2022/03/31 09:49:29;;;;;;;17.20;10.07;;;12.60;92.90;;;;;;5056346;28;20028;-74
2022/03/31 09:52:07;;;;;;;19.23;9.23;;;12.60;92.70;;;;;;5069481;28;20044;-74
2022/03/31 09:54:35;;;;;;;16.48;7.63;;;12.60;93.10;;;;;;5080407;28;20504;-74
2022/03/31 09:57:10;;;;;;;18.88;10.80;;;12.70;93.00;;;;;;5067104;28;20503;-74
2022/03/31 09:59:39;;;;;;;18.65;8.23;;;12.70;92.80;;;;;;5068699;28;20033;-74
2022/03/31 10:02:05;;;;;;;12.02;7.78;;;12.60;93.30;;;;;;5050195;28;20611;-73
2022/03/31 10:04:32;;;;;;;15.85;8.38;;;12.70;93.70;;;;;;5072269;28;20041;-73
2022/03/31 10:06:58;;;;;;;18.48;8.82;;;12.70;93.70;;;;;;5075639;28;20028;-74
2022/03/31 10:09:24;;;;;;;15.70;8.05;;;12.80;93.50;;;;;;5053084;28;20091;-73
2022/03/31 10:12:03;;;;;;;14.95;9.82;;;12.80;93.10;;;;;;5071623;28;20047;-74
2022/03/31 10:14:43;;;;;;;15.93;9.40;;;12.70;93.10;;;;;;5076025;28;20063;-74
2022/03/31 10:17:10;;;;;;;13.50;8.50;;;12.70;93.50;;;;;;5067856;28;20468;-73
2022/03/31 10:19:41;;;;;;;16.98;9.30;;;12.60;93.10;;;;;;5065398;28;20017;-73
2022/03/31 10:25:00;;;;;;;17.13;7.57;;;12.50;93.30;;;;;;5042319;28;20388;-74
2022/03/31 10:27:28;;;;;;;13.65;8.10;;;12.60;93.30;;;;;;5064080;28;20036;-74
2022/03/31 10:29:55;;;;;;;17.40;8.32;;;12.70;93.60;;;;;;5065799;28;20086;-74
2022/03/31 10:32:24;;;;;;;16.15;8.68;;;12.80;93.40;;;;;;5051207;28;20044;-74
2022/03/31 10:34:53;;;;;;;14.93;8.32;;;12.80;92.80;;;;;;5067652;28;20021;-74
2022/03/31 10:37:36;;;;;;;13.55;9.25;;;12.80;92.30;;;;;;5071437;28;20496;-74
2022/03/31 10:40:09;;;;;;;13.73;7.55;;;12.80;93.60;;;;;;5056649;28;20127;-74
2022/03/31 10:42:35;;;;;;;16.05;8.35;;;12.80;93.10;;;;;;5075345;28;20079;-74
2022/03/31 10:45:04;;;;;;;11.90;7.30;;;12.90;93.10;;;;;;5075335;28;20534;-74
2022/03/31 10:47:34;;;;;;;11.02;6.75;;;13.10;92.80;;;;;;5075105;28;20123;-74
2022/03/31 10:50:01;;;;;;;12.95;6.68;;;13.30;93.10;;;;;;5075026;28;20047;-74
2022/03/31 10:52:28;;;;;;;12.45;6.32;;;13.80;92.40;;;;;;5074493;28;20123;-74
2022/03/31 10:55:09;;;;;;;12.20;6.22;;;14.10;92.10;;;;;;5054609;28;20045;-75
2022/03/31 10:57:45;;;;;;;6.68;4.72;;;14.40;90.40;;;;;;5065702;28;20064;-74
2022/03/31 11:00:14;;;;;;;7.38;3.80;;;14.50;90.00;;;;;;5069610;28;20063;-75
2022/03/31 11:02:45;;;;;;;9.25;4.43;;;14.50;89.90;;;;;;5064191;28;20041;-81
2022/03/31 11:05:12;;;;;;;9.90;4.40;;;14.60;90.20;;;;;;5071552;28;20107;-81
2022/03/31 11:07:38;;;;;;;4.75;3.28;;;14.40;88.80;;;;;;5075052;28;20029;-80
2022/03/31 11:10:10;;;;;;;7.18;3.53;;;14.30;89.20;;;;;;5067229;28;20436;-75
2022/03/31 11:12:36;;;;;;;5.53;3.40;;;14.20;89.20;;;;;;5048117;28;20091;-74
2022/03/31 11:15:11;;;;;;;5.65;3.03;;;14.10;89.90;;;;;;5056700;28;20041;-74
2022/03/31 11:17:40;;;;;;;7.68;2.75;;;14.20;90.00;;;;;;5063375;28;20025;-75
2022/03/31 11:20:18;;;;;;;6.95;2.53;;;14.20;88.70;;;;;;5074621;28;20118;-75
2022/03/31 11:22:53;;;;;;;8.93;2.83;;;14.20;89.00;;;;;;5074428;28;20487;-75
2022/03/31 11:25:19;;;;;;;3.13;2.22;;;14.20;90.10;;;;;;5072567;28;20371;-76
2022/03/31 11:27:47;;;;;;;4.05;2.40;;;14.10;89.40;;;;;;5072154;28;20115;-76
2022/03/31 11:30:14;;;;;;;5.35;2.15;;;14.00;88.40;;;;;;5061671;28;20037;-75
2022/03/31 11:32:42;;;;;;;3.53;1.95;;;14.00;89.20;;;;;;5071024;28;20068;-75
2022/03/31 11:35:13;;;;;;;5.32;2.35;;;13.80;89.30;;;;;;5072867;28;20028;-75
2022/03/31 11:37:45;;;;;;;6.68;1.92;;;13.90;88.90;;;;;;5072172;28;20130;-75
2022/03/31 11:40:40;;;;;;;7.35;2.65;;;13.90;88.70;;;;;;5072750;28;20112;-75
2022/03/31 11:43:08;;;;;;;4.30;1.77;;;13.70;89.40;;;;;;5043181;28;20049;-75
2022/03/31 11:45:45;;;;;;;6.97;2.22;;;13.70;89.50;;;;;;5048021;28;20037;-75
2022/03/31 11:48:40;;;;;;;5.95;2.28;;;13.70;90.20;;;;;;5049718;28;20037;-74
2022/03/31 11:51:07;;;;;;;5.53;1.90;;;13.60;90.00;;;;;;5053979;28;20519;-75
2022/03/31 11:53:38;;;;;;;5.07;1.90;;;13.60;90.40;;;;;;5054464;28;20033;-76
2022/03/31 11:56:26;;;;;;;3.53;1.65;;;13.60;89.70;;;;;;5050207;28;20041;-75
2022/03/31 11:58:57;;;;;;;2.20;1.77;;;13.60;90.10;;;;;;5047529;28;20037;-74
2022/03/31 12:01:47;;;;;;;3.72;2.13;;;13.60;90.40;;;;;;5053881;28;20045;-75
2022/03/31 12:04:31;;;;;;;5.13;2.03;;;13.60;90.70;;;;;;5034442;28;20468;-75
2022/03/31 12:07:02;;;;;;;5.13;2.35;;;13.60;90.20;;;;;;5034859;28;20041;-75
2022/03/31 12:09:27;;;;;;;;;;;13.60;90.70;;;;;;5041946;28;20037;-75
2022/03/31 12:11:54;;;;;;;2.25;1.42;;;13.40;90.10;;;;;;5036835;28;19913;-76
2022/03/31 12:14:20;;;;;;;5.43;1.67;;;13.50;90.70;;;;;;5034471;28;20036;-75
2022/03/31 12:16:49;;;;;;;2.05;1.70;;;13.40;90.20;;;;;;5058607;28;20029;-76
2022/03/31 12:19:16;;;;;;;4.18;2.10;;;13.50;90.60;;;;;;5054674;28;20041;-75
2022/03/31 12:21:46;;;;;;;3.03;1.67;;;13.40;90.50;;;;;;5053011;28;20041;-75
2022/03/31 12:24:12;;;;;;;3.95;2.15;;;13.40;90.70;;;;;;5056238;28;20033;-75
2022/03/31 12:26:39;;;;;;;6.10;2.25;;;13.40;90.80;;;;;;5037311;28;20135;-75
2022/03/31 12:29:19;;;;;;;3.60;2.30;;;13.30;90.90;;;;;;5055762;28;20051;-74
2022/03/31 12:31:45;;;;;;;3.37;2.10;;;13.40;90.70;;;;;;5047886;28;20124;-75
2022/03/31 12:34:12;;;;;;;4.57;2.20;;;13.40;91.30;;;;;;5061899;28;20275;-76
2022/03/31 12:36:38;;;;;;;4.88;1.98;;;13.40;91.20;;;;;;5064532;28;20040;-74
2022/03/31 12:39:05;;;;;;;5.13;2.40;;;13.30;90.50;;;;;;5063493;28;20479;-75
2022/03/31 12:41:40;;;;;;;3.60;2.28;;;13.30;91.10;;;;;;5047272;28;20037;-75
2022/03/31 12:44:07;;;;;;;5.22;1.77;;;13.30;91.40;;;;;;5080634;28;20123;-74
2022/03/31 12:46:38;;;;;;;5.28;2.15;;;13.30;91.60;;;;;;5078363;28;20075;-75
2022/03/31 12:49:09;;;;;;;2.80;1.70;;;13.30;90.80;;;;;;5060556;28;20476;-76
2022/03/31 12:51:45;;;;;;;4.03;1.90;;;13.30;91.50;;;;;;5046870;28;20389;-75
2022/03/31 12:54:26;;;;;;;5.15;2.10;;;13.30;91.70;;;;;;5073096;28;20051;-75
2022/03/31 12:56:54;;;;;;;4.38;2.22;;;13.30;91.50;;;;;;5067489;28;20037;-75
2022/03/31 12:59:23;;;;;;;3.35;2.22;;;13.30;91.10;;;;;;5055997;28;20495;-79
2022/03/31 13:02:08;;;;;;;5.22;2.17;;;13.20;91.40;;;;;;5056304;28;20044;-79
2022/03/31 13:04:35;;;;;;;3.45;2.30;;;13.30;92.30;;;;;;5056499;28;20051;-79
2022/03/31 13:07:14;;;;;;;5.93;2.55;;;13.20;91.80;;;;;;5073292;28;20045;-79
2022/03/31 13:09:41;;;;;;;3.97;2.45;;;13.20;92.50;;;;;;5058152;28;20048;-79
2022/03/31 13:12:10;;;;;;;3.60;2.20;;;13.20;92.60;;;;;;5073936;28;20091;-79
2022/03/31 13:14:42;;;;;;;4.20;1.90;;;13.10;92.90;;;;;;5044903;28;20037;-79
2022/03/31 13:17:09;;;;;;;3.65;2.33;;;13.10;92.60;;;;;;5070083;28;20029;-80
2022/03/31 13:19:35;;;;;;;3.40;1.88;;;13.10;92.70;;;;;;5050561;28;20036;-80
2022/03/31 13:22:04;;;;;;;5.68;2.70;;;13.10;92.50;;;;;;5072588;28;20045;-80
2022/03/31 13:24:30;;;;;;;3.13;2.30;;;13.00;92.40;;;;;;5073087;28;20044;-79
2022/03/31 13:26:56;;;;;;;4.07;2.40;;;12.80;92.80;;;;;;5072382;28;20086;-78
2022/03/31 13:29:23;;;;;;;2.95;2.28;;;12.60;93.20;;;;;;5072307;28;20041;-80
2022/03/31 13:31:53;;;;;;;3.58;2.30;;;12.50;93.50;;;;;;5071905;28;20032;-80
2022/03/31 13:34:29;;;;;;;3.53;2.38;;;12.50;93.60;;;;;;5072322;28;20040;-79
2022/03/31 13:36:59;;;;;;;3.25;1.90;;;12.50;93.80;;;;;;5071780;28;20542;-79
2022/03/31 13:39:26;;;;;;;6.38;2.80;;;12.50;93.80;;;;;;5072340;28;20502;-80
2022/03/31 13:41:53;;;;;;;2.60;2.35;;;12.40;94.00;;;;;;5066236;28;20037;-80
2022/03/31 13:44:19;;;;;;;4.72;2.83;;;12.40;94.20;;;;;;5065851;28;20040;-80
2022/03/31 13:46:45;;;;;;;4.55;2.42;;;12.40;94.40;;;;;;5055196;28;20048;-80
2022/03/31 13:49:12;;;;;;;4.53;2.42;;;12.30;94.30;;;;;;5072633;28;20523;-79
2022/03/31 13:51:39;;;;;;;4.97;2.53;;;12.30;94.70;;;;;;5073310;28;20048;-80
2022/03/31 13:54:07;;;;;;;5.68;2.53;;;12.30;95.00;;;;;;5054860;28;20043;-79
2022/03/31 13:56:34;;;;;;;5.78;2.95;;;12.30;94.80;;;;;;5072765;28;20446;-79
2022/03/31 14:01:45;;;;;;;4.30;2.90;;;12.30;94.90;;;;;;5057234;28;20163;-80
2022/03/31 14:04:10;;;;;;;7.55;2.80;;;12.30;94.70;;;;;;5055845;28;20144;-80
2022/03/31 14:06:36;;;;;;;6.68;2.97;;;12.30;95.00;;;;;;5055545;28;20536;-79
2022/03/31 14:09:05;;;;;;;5.80;2.72;;;12.20;95.20;;;;;;5076022;28;20404;-79
2022/03/31 14:11:32;;;;;;;5.10;2.75;;;12.30;95.50;;;;;;5076152;28;20039;-79
2022/03/31 14:13:59;;;;;;;4.82;2.65;;;12.30;95.30;;;;;;5076510;28;20037;-80
2022/03/31 14:16:29;;;;;;;4.43;2.90;;;12.30;95.00;;;;;;5076327;28;20028;-80
2022/03/31 14:18:59;;;;;;;2.95;2.22;;;12.20;94.90;;;;;;5076084;28;20112;-80
2022/03/31 14:21:25;;;;;;;4.75;2.83;;;12.30;95.40;;;;;;5075269;28;20036;-80
2022/03/31 14:23:52;;;;;;;4.82;2.33;;;12.30;95.30;;;;;;5076173;28;20178;-80
2022/03/31 14:26:19;;;;;;;3.25;2.13;;;12.30;95.20;;;;;;5058616;28;20033;-80
2022/03/31 14:28:46;;;;;;;4.13;2.35;;;12.30;95.20;;;;;;5052180;28;20194;-80
2022/03/31 14:31:15;;;;;;;2.75;1.77;;;12.40;94.90;;;;;;5050654;28;20484;-80
2022/03/31 14:33:41;;;;;;;4.35;2.65;;;12.50;95.40;;;;;;5076047;28;20115;-79
2022/03/31 14:36:08;;;;;;;4.88;1.88;;;12.50;94.70;;;;;;5073534;28;20033;-80
2022/03/31 14:38:35;;;;;;;3.00;1.70;;;12.50;93.90;;;;;;5056167;28;20035;-80
2022/03/31 14:41:11;;;;;;;6.18;2.38;;;12.50;94.40;;;;;;5061303;28;20039;-80
2022/03/31 14:43:39;;;;;;;2.75;2.00;;;12.60;94.30;;;;;;5072594;28;20048;-80
2022/03/31 14:46:07;;;;;;;4.35;2.78;;;12.60;94.10;;;;;;5074110;28;20155;-81
2022/03/31 14:48:33;;;;;;;4.03;2.50;;;12.50;94.30;;;;;;5074679;28;20037;-80
2022/03/31 14:50:59;;;;;;;5.22;3.28;;;12.50;94.30;;;;;;5073803;28;20102;-80
2022/03/31 14:53:25;;;;;;;3.10;2.17;;;12.50;94.10;;;;;;5073015;28;20029;-79
2022/03/31 14:55:51;;;;;;;5.40;2.33;;;12.40;94.10;;;;;;5074292;28;20473;-80
2022/03/31 14:58:16;;;;;;;3.72;2.30;;;12.50;94.70;;;;;;5073861;28;20037;-80
2022/03/31 15:00:42;;;;;;;4.85;3.03;;;12.60;94.20;;;;;;5075260;28;20071;-79
2022/03/31 15:03:08;;;;;;;3.85;1.90;;;12.50;94.00;;;;;;5074471;28;20371;-80
2022/03/31 15:05:34;;;;;;;4.40;2.00;;;12.40;94.20;;;;;;5069953;28;20028;-79
2022/03/31 15:08:00;;;;;;;2.88;1.83;;;12.40;94.50;;;;;;5050892;28;20071;-79
2022/03/31 15:15:56;;;;;;;3.22;2.22;;;12.10;94.60;;;;;;5069778;28;20059;-79
2022/03/31 15:18:23;;;;;;;3.40;2.15;;;12.10;94.80;;;;;;5071695;28;20488;-79
2022/03/31 15:20:49;;;;;;;5.25;2.10;;;12.20;95.20;;;;;;5072688;28;20722;-79
2022/03/31 15:23:15;;;;;;;3.97;1.50;;;12.20;94.70;;;;;;5055304;28;20529;-80
2022/03/31 15:25:41;;;;;;;3.83;1.90;;;12.20;94.50;;;;;;5072973;28;20504;-80
2022/03/31 15:28:07;;;;;;;5.70;2.33;;;12.00;94.50;;;;;;5063793;28;20111;-80
2022/03/31 15:30:33;;;;;;;3.22;2.00;;;12.00;94.80;;;;;;5072073;28;20032;-80
2022/03/31 15:32:59;;;;;;;5.88;1.92;;;12.00;95.30;;;;;;5071326;28;20071;-80
2022/03/31 15:35:25;;;;;;;2.67;1.95;;;12.00;95.30;;;;;;5037313;28;20064;-80
2022/03/31 15:37:51;;;;;;;2.92;2.00;;;12.20;95.40;;;;;;5071212;28;20032;-79
2022/03/31 15:40:16;;;;;;;2.55;1.80;;;12.30;94.70;;;;;;5071325;28;20090;-80
2022/03/31 15:42:42;;;;;;;3.83;1.70;;;12.40;95.10;;;;;;5071426;28;20044;-80
2022/03/31 15:45:09;;;;;;;3.92;2.08;;;12.50;95.30;;;;;;5044297;28;20036;-79
2022/03/31 15:47:35;;;;;;;5.05;2.13;;;12.50;94.80;;;;;;5037307;28;20041;-79
2022/03/31 15:50:02;;;;;;;3.25;2.17;;;12.60;94.60;;;;;;5053114;28;20500;-79
2022/03/31 15:52:28;;;;;;;3.88;2.47;;;12.50;93.80;;;;;;5070247;28;20048;-79
2022/03/31 15:54:54;;;;;;;4.32;2.67;;;12.50;94.50;;;;;;5041301;28;20048;-80
2022/03/31 15:57:20;;;;;;;3.38;1.83;;;12.70;94.60;;;;;;5069609;28;20503;-80
2022/03/31 15:59:45;;;;;;;2.38;1.85;;;12.80;94.40;;;;;;5071348;28;20404;-80
2022/03/31 16:02:12;;;;;;;5.38;1.88;;;12.90;94.40;;;;;;5070701;28;20036;-80
2022/03/31 16:04:38;;;;;;;4.03;2.42;;;12.90;93.30;;;;;;5055170;28;20110;-80
2022/03/31 16:07:04;;;;;;;3.10;2.03;;;13.00;93.50;;;;;;5054500;28;20500;-81
2022/03/31 16:09:30;;;;;;;3.63;1.98;;;13.00;93.50;;;;;;5071446;28;20036;-81
2022/03/31 16:11:57;;;;;;;3.22;1.88;;;13.10;93.40;;;;;;5073122;28;20029;-81
2022/03/31 16:14:24;;;;;;;6.43;2.20;;;13.10;93.20;;;;;;5056242;28;20058;-81
2022/03/31 16:16:50;;;;;;;4.82;2.20;;;13.20;93.10;;;;;;5055894;28;20132;-81
2022/03/31 16:19:19;;;;;;;2.20;2.00;;;13.20;92.70;;;;;;5073925;28;20036;-81
2022/03/31 16:21:45;;;;;;;2.08;1.45;;;13.20;92.80;;;;;;5071081;28;20083;-81
2022/03/31 16:24:11;;;;;;;1.63;1.30;;;13.20;92.90;;;;;;5073744;28;20148;-81
2022/03/31 16:26:37;;;;;;;2.85;1.60;;;13.20;92.60;;;;;;5055691;28;20032;-81
2022/03/31 16:29:03;;;;;;;1.35;1.02;;;13.10;92.60;;;;;;5072674;28;20115;-81
2022/03/31 16:31:28;;;;;;;2.40;1.40;;;13.10;92.70;;;;;;5073264;28;20120;-81
2022/03/31 16:33:54;;;;;;;1.67;1.33;;;13.10;92.30;;;;;;5073590;28;20448;-81
2022/03/31 16:36:21;;;;;;;2.47;1.65;;;13.10;92.30;;;;;;5055489;28;20677;-81
2022/03/31 16:38:49;;;;;;;2.00;1.30;;;13.10;92.20;;;;;;5055497;28;20025;-81
2022/03/31 16:41:15;;;;;;;2.50;1.60;;;13.10;92.50;;;;;;5073526;28;20078;-81
2022/03/31 16:43:43;;;;;;;2.33;1.60;;;13.10;92.90;;;;;;5073602;28;20053;-81
2022/03/31 16:46:12;;;;;;;2.25;1.45;;;13.10;92.80;;;;;;5073476;28;20063;-81
2022/03/31 16:48:39;;;;;;;2.03;1.20;;;13.10;92.90;;;;;;5055740;28;20032;-81
2022/03/31 16:51:06;;;;;;;2.67;1.35;;;13.10;92.20;;;;;;5071501;28;20064;-81
2022/03/31 16:53:31;;;;;;;1.80;1.30;;;13.00;91.70;;;;;;5055129;28;20582;-81
2022/03/31 16:55:57;;;;;;;1.75;1.10;;;12.90;92.10;;;;;;5067545;28;20081;-81
2022/03/31 16:58:23;;;;;;;2.00;1.25;;;12.90;92.40;;;;;;5067196;28;20048;-81
2022/03/31 17:00:49;;;;;;;1.27;1.08;;;12.90;92.50;;;;;;5066964;28;20048;-81
2022/03/31 17:03:14;;;;;;;2.75;1.15;;;12.90;92.10;;;;;;5040358;28;20040;-81
2022/03/31 17:05:40;;;;;;;2.42;1.10;;;13.00;92.50;;;;;;5067118;28;20135;-82
2022/03/31 17:08:08;;;;;;;1.80;1.10;;;13.00;92.40;;;;;;5051396;28;20377;-81
2022/03/31 17:10:34;;;;;;;1.10;0.98;;;12.90;91.90;;;;;;5068242;28;20028;-81
2022/03/31 17:13:00;;;;;;;1.23;1.02;;;12.90;91.70;;;;;;5066927;28;20040;-81
2022/03/31 17:15:32;;;;;;;2.05;1.48;;;12.90;91.70;;;;;;5048883;28;20070;-81
2022/03/31 17:18:18;;;;;;;1.25;1.02;;;12.80;92.30;;;;;;5070195;28;20048;-81
2022/03/31 17:20:50;;;;;;;2.50;1.20;;;12.90;92.50;;;;;;5044517;28;20033;-81
2022/03/31 17:23:21;;;;;;;1.88;1.15;;;12.90;92.80;;;;;;5062274;28;20418;-81
2022/03/31 17:25:50;;;;;;;2.00;1.20;;;12.90;92.90;;;;;;5060219;28;20045;-75
2022/03/31 17:28:19;;;;;;;4.10;1.27;;;12.90;92.80;;;;;;5064285;28;20042;-74
2022/03/31 17:30:48;;;;;;;1.58;1.15;;;12.90;92.80;;;;;;5059495;28;20040;-74
2022/03/31 17:33:14;;;;;;;2.58;1.42;;;12.90;92.90;;;;;;5068234;28;20376;-74
2022/03/31 17:35:57;;;;;;;2.60;1.75;;;12.80;92.80;;;;;;5064775;28;20036;-74
2022/03/31 17:38:34;;;;;;;2.75;1.83;;;12.80;92.90;;;;;;5048231;28;20044;-74
2022/03/31 17:41:00;;;;;;;2.22;1.73;;;12.80;93.20;;;;;;5060208;28;20033;-79
2022/03/31 17:43:29;;;;;;;3.25;1.95;;;12.80;93.30;;;;;;5069181;28;20052;-79
2022/03/31 17:45:57;;;;;;;2.17;1.67;;;12.80;93.40;;;;;;5071200;28;20060;-79
2022/03/31 17:48:23;;;;;;;3.10;2.20;;;12.80;93.40;;;;;;5070431;28;20601;-79
2022/03/31 17:50:49;;;;;;;2.97;2.08;;;12.80;93.60;;;;;;5071413;28;20362;-79
2022/03/31 17:53:16;;;;;;;4.43;2.60;;;12.80;93.40;;;;;;5075317;28;20048;-79
2022/03/31 17:55:42;;;;;;;4.40;2.15;;;12.80;93.70;;;;;;5068804;28;20029;-79
2022/03/31 17:58:09;;;;;;;1.90;1.38;;;12.80;93.10;;;;;;5072422;28;20070;-79
2022/03/31 18:00:37;;;;;;;2.33;1.70;;;12.80;93.10;;;;;;5261584;22;20056;-73
2022/03/31 18:03:04;;;;;;;2.33;1.73;;;12.90;93.30;;;;;;5065011;28;20115;-74
2022/03/31 18:05:30;;;;;;;1.70;1.55;;;12.90;93.00;;;;;;5071246;28;20033;-74
2022/03/31 18:07:56;;;;;;;2.10;1.70;;;12.90;93.00;;;;;;5051770;28;20069;-73
2022/03/31 18:11:04;;;;;;;2.70;2.03;;;12.90;93.00;;;;;;5067802;28;20067;-74
2022/03/31 18:13:33;;;;;;;2.95;2.15;;;12.90;92.90;;;;;;5053661;28;20090;-74
2022/03/31 18:16:00;;;;;;;2.30;2.10;;;12.80;92.90;;;;;;5074318;28;20059;-75
2022/03/31 18:18:27;;;;;;;3.42;2.65;;;12.80;93.10;;;;;;5075247;28;20048;-79
2022/03/31 18:20:55;;;;;;;3.83;3.08;;;12.80;92.90;;;;;;5070862;28;20047;-80
2022/03/31 18:23:20;;;;;;;5.00;3.20;;;12.80;92.80;;;;;;5056798;28;20127;-79
2022/03/31 18:25:47;;;;;;;5.15;3.35;;;12.80;93.10;;;;;;5074562;28;20126;-79
2022/03/31 18:28:13;;;;;;;5.07;3.28;;;12.70;93.10;;;;;;5075921;28;20051;-78
2022/03/31 18:36:08;;;;;;;6.38;3.63;;;12.70;93.30;;;;;;5075994;28;20081;-78
2022/03/31 18:38:36;;;;;;;5.03;3.30;;;12.60;93.40;;;;;;5079476;28;20111;-78
2022/03/31 18:41:02;;;;;;;4.03;3.47;;;12.60;93.30;;;;;;5077811;28;20354;-79
2022/03/31 18:43:29;;;;;;;5.07;3.42;;;12.60;93.50;;;;;;5078562;28;20033;-78
2022/03/31 18:45:56;;;;;;;6.57;3.42;;;12.50;93.40;;;;;;5079282;28;20634;-77